• Join FlightAware (Why Join?)
  • Login
  • US Flag 
11:25AM EDT


 

Airport Tracker/Info


-or-


 

Live Flight TrackerFlight Track Log ✈ EJA831 ✈ 26-Jul-2013 ✈ KIAD - KMGN

Flight Track Log - Related Links

Times and Time Zones

All times are in EDT time to prevent confusion due to time zone crossing. See the EJA831 flight status page for this flight to view local times or setup timezone preferences in your user account.

Time Position Orientation Groundspeed Altitude Reporting Facility
EDT Latitude Longitude Course Direction KTS MPH feet Rate Location/Type
08:54AM 39.0167 -77.4500 288° West 247 284 3,300  Level Potomac TRACON
08:57AM 39.1914 -77.4072 11° North 258 297 10,800 2,460 Climbing Washington Center
08:58AM 39.2622 -77.4225 351° North 248 285 12,100 2,100 Climbing Washington Center
08:59AM 39.2750 -77.5300 279° West 218 251 15,100 2,460 Climbing Washington Center
09:00AM 39.4631 -77.6355 288° West  Level FlightAware Approximate
09:00AM 39.2858 -77.6375 277° West 259 298 17,000  Level Washington Center
09:01AM 39.3344 -77.7222 307° West 300 345 17,200 1,140 Climbing Washington Center
09:02AM 39.4017 -77.8100 315° West 312 359 19,300 1,860 Climbing Washington Center
09:03AM 39.4644 -77.9006 312° West 329 379 21,000 840 Climbing Washington Center
09:04AM 39.5314 -77.9969 312° West 340 391 21,000 600 Level Washington Center
09:05AM 39.6003 -78.0936 313° West 355 409 22,200 1,500 Climbing Washington Center
09:05AM 39.6625 -78.1803 313° West 360 414 23,800 1,800 Climbing Cleveland Center
09:06AM 39.7181 -78.2567 313° West 336 387 25,500 1,860 Climbing Cleveland Center
09:08AM 39.8364 -78.4364 311° West 330 380 29,500 2,100 Climbing Cleveland Center
09:09AM 39.8964 -78.5211 313° West 330 380 31,800 2,220 Climbing Cleveland Center
09:10AM 39.9542 -78.6089 311° West 330 380 34,000 2,040 Climbing Cleveland Center
09:11AM 40.0117 -78.6883 313° West 324 373 35,900 1,380 Climbing Cleveland Center
09:12AM 40.0717 -78.7761 312° West 324 373 36,800 1,140 Climbing Cleveland Center
09:13AM 40.1314 -78.8669 311° West 324 373 38,200 1,560 Climbing Cleveland Center
09:14AM 40.1889 -78.9525 311° West 324 373 40,000 900 Climbing Cleveland Center
09:15AM 40.2506 -79.0408 312° West 319 367 40,000  Level Cleveland Center
09:16AM 40.3122 -79.1344 311° West 332 382 40,000  Level Cleveland Center
09:17AM 40.3803 -79.2339 312° West 348 400 40,000  Level Cleveland Center
09:18AM 40.4522 -79.3333 314° West 366 421 40,000  Level Cleveland Center
09:19AM 40.5222 -79.4358 312° West 372 428 40,000  Level Cleveland Center
09:20AM 40.5942 -79.5467 311° West 384 442 40,000  Level Cleveland Center
09:21AM 40.6658 -79.6553 311° West 390 449 40,000  Level Cleveland Center
09:22AM 40.7375 -79.7611 312° West 390 449 40,000  Level Cleveland Center
09:23AM 40.8114 -79.8725 311° West 395 455 40,000  Level Cleveland Center
09:24AM 40.8847 -79.9817 312° West 400 460 40,000  Level Cleveland Center
09:25AM 40.9606 -80.0936 312° West 400 460 40,000  Level Cleveland Center
09:26AM 41.0297 -80.2061 309° West 400 460 40,000  Level Cleveland Center
09:27AM 41.1050 -80.3186 312° West 400 460 40,000  Level Cleveland Center
09:28AM 41.1822 -80.4481 308° West 400 460 40,000  Level Cleveland Center
09:29AM 41.2575 -80.5611 312° West 406 467 40,000  Level Cleveland Center
09:30AM 41.3344 -80.6744 312° West 406 467 40,000  Level Cleveland Center
09:31AM 41.4242 -80.7686 322° Northwest 411 473 40,000  Level Cleveland Center
09:32AM 41.5136 -80.8633 322° Northwest 411 473 40,000  Level Cleveland Center
09:33AM 41.6069 -80.9553 324° Northwest 419 482 40,000  Level Cleveland Center
09:34AM 41.6964 -81.0503 322° Northwest 413 475 40,000  Level Cleveland Center
09:35AM 41.7878 -81.1428 323° Northwest 419 482 40,000  Level Cleveland Center
09:36AM 41.8767 -81.2386 321° Northwest 414 476 40,000  Level Cleveland Center
09:37AM 41.9681 -81.3344 322° Northwest 419 482 40,000  Level Cleveland Center
09:38AM 42.0589 -81.4278 323° Northwest 419 482 40,000  Level Cleveland Center
09:39AM 42.1478 -81.5214 322° Northwest 413 475 40,000  Level Cleveland Center
09:40AM 42.2367 -81.6181 321° Northwest 413 475 40,000  Level Cleveland Center
09:41AM 42.3192 -81.7008 323° Northwest 413 475 40,000  Level Cleveland Center
09:42AM 42.4078 -81.8008 320° Northwest 413 475 40,000  Level Cleveland Center
09:43AM 42.4964 -81.8925 323° Northwest 408 470 40,000  Level Cleveland Center
09:44AM 42.5850 -81.9875 322° Northwest 408 470 40,000  Level Cleveland Center
09:45AM 42.6756 -82.0856 321° Northwest 413 475 40,000  Level Cleveland Center
09:46AM 42.7658 -82.1811 322° Northwest 418 481 40,000  Level Cleveland Center
09:47AM 42.8561 -82.2769 322° Northwest 418 481 40,000  Level Cleveland Center
09:48AM 42.9167 -82.3667 313° West 410 472 40,000  Level Toronto Center
09:49AM 43.0167 -82.4333 334° Northwest 410 472 40,000  Level Toronto Center
09:50AM 43.1000 -82.5500 314° West 400 460 40,000 -300 Level Toronto Center
09:51AM 43.1833 -82.6333 324° Northwest 400 460 39,400 -1,200 Descending Toronto Center
09:52AM 43.2500 -82.7167 318° Northwest 380 437 37,700 -1,800 Descending Toronto Center
09:53AM 43.3500 -82.8000 329° Northwest 370 426 35,800 -1,800 Descending Toronto Center
09:54AM 43.4167 -82.9000 313° West 360 414 34,100 -900 Descending Toronto Center
09:55AM 43.5167 -82.9667 334° Northwest 370 426 34,000 -480 Descending Toronto Center
09:56AM 43.6000 -83.0667 319° Northwest 390 449 33,200 -1,200 Descending Toronto Center
09:57AM 43.7000 -83.1514 329° Northwest 394 453 31,300 -1,740 Descending Minneapolis Center
09:59AM 43.8083 -83.2583 325° Northwest 399 459 29,200 -1,920 Descending Minneapolis Center
10:00AM 43.8981 -83.3467 325° Northwest 406 467 27,400 -1,980 Descending Minneapolis Center
10:01AM 44.0056 -83.4519 325° Northwest 400 460 25,200 -1,800 Descending Minneapolis Center
10:02AM 44.0897 -83.5375 324° Northwest 386 444 23,400 -1,020 Descending Minneapolis Center
10:03AM 44.1911 -83.6381 325° Northwest 376 433 23,000 -240 Descending Minneapolis Center
10:04AM 44.2786 -83.7278 324° Northwest 385 443 23,000 -60 Level Minneapolis Center
10:05AM 44.3672 -83.8161 325° Northwest 391 450 22,900 -540 Descending Minneapolis Center
10:06AM 44.4550 -83.9058 324° Northwest 392 451 22,000 -900 Descending Minneapolis Center
10:07AM 44.5586 -84.0103 324° Northwest 388 447 21,100 -780 Descending Minneapolis Center
10:08AM 44.6453 -84.0972 324° Northwest 384 442 20,400 -720 Descending Minneapolis Center
10:09AM 44.7286 -84.1850 323° Northwest 380 437 19,700 -1,260 Descending Minneapolis Center
10:10AM 44.8186 -84.2794 323° Northwest 378 435 17,900 -2,040 Descending Minneapolis Center
10:11AM 44.9089 -84.3392 335° Northwest 361 415 15,600 -2,400 Descending Minneapolis Center
10:12AM 44.9792 -84.3872 334° Northwest 344 396 13,100 -3,120 Descending Minneapolis Center
10:13AM 45.0692 -84.4608 330° Northwest 299 344 9,300 -3,360 Descending Minneapolis Center
10:14AM 45.1306 -84.5364 319° Northwest 274 315 6,200 -2,520 Descending Minneapolis Center
10:15AM 45.1836 -84.6036 318° Northwest 261 300 4,200 -1,140 Descending Minneapolis Center
10:16AM 45.2381 -84.6750 317° Northwest 251 289 3,900 -660 Descending Minneapolis Center
10:17AM 45.2886 -84.7400 318° Northwest 249 287 2,900 -1,020 Descending Minneapolis Center
10:19AM 45.4167 -84.9000 335° Northwest  Level FlightAware Approximate
10:26AM 45.4256 -84.9134 335° Northwest  Level Estimated
10:27AM 45.4256 -84.9134 335° Northwest  Level Estimated